createdAt,value
2018-05-04T00:03:06.108Z,2.73
2018-05-04T00:06:15.384Z,3.53
2018-05-04T00:09:25.420Z,3.90
2018-05-04T00:12:34.823Z,3.67
2018-05-04T00:15:45.068Z,3.20
2018-05-04T00:18:55.716Z,3.10
2018-05-04T00:22:05.179Z,3.20
2018-05-04T00:25:14.892Z,2.87
2018-05-04T00:28:25.097Z,3.10
2018-05-04T00:31:35.187Z,3.27
2018-05-04T00:34:44.574Z,3.10
2018-05-04T00:37:54.085Z,3.30
2018-05-04T00:41:04.459Z,2.90
2018-05-04T00:44:14.747Z,3.10
2018-05-04T00:47:26.553Z,3.00
2018-05-04T00:50:36.281Z,3.00
2018-05-04T00:54:03.523Z,3.80
2018-05-04T00:57:13.526Z,3.50
2018-05-04T01:00:22.847Z,3.40
2018-05-04T01:03:32.627Z,3.77
2018-05-04T01:06:41.899Z,3.37
2018-05-04T01:09:51.621Z,3.20
2018-05-04T01:13:01.507Z,3.60
2018-05-04T01:16:11.743Z,3.97
2018-05-04T01:19:21.947Z,3.70
2018-05-04T01:22:31.380Z,4.07
2018-05-04T01:25:40.875Z,3.63
2018-05-04T01:28:50.495Z,3.57
2018-05-04T01:31:59.988Z,3.07
2018-05-04T01:35:10.384Z,3.60
2018-05-04T01:38:19.943Z,3.83
2018-05-04T01:41:30.732Z,3.57
2018-05-04T01:44:40.136Z,3.93
2018-05-04T01:47:49.596Z,4.17
2018-05-04T01:50:59.552Z,4.13
2018-05-04T01:54:09.847Z,3.53
2018-05-04T01:57:20.044Z,3.70
2018-05-04T02:00:30.008Z,4.93
2018-05-04T02:03:40.256Z,4.50
2018-05-04T02:06:50.135Z,4.30
2018-05-04T02:09:59.725Z,3.87
2018-05-04T02:13:09.202Z,4.50
2018-05-04T02:16:19.411Z,4.17
2018-05-04T02:19:30.437Z,4.77
2018-05-04T02:22:40.540Z,4.70
2018-05-04T02:25:50.220Z,4.73
2018-05-04T02:29:00.305Z,4.20
2018-05-04T02:32:10.166Z,4.30
2018-05-04T02:35:20.421Z,4.47
2018-05-04T02:38:30.658Z,4.57
2018-05-04T02:41:40.512Z,4.27
2018-05-04T02:44:50.048Z,4.90
2018-05-04T02:47:59.929Z,4.93
2018-05-04T02:51:10.289Z,4.47
2018-05-04T02:54:20.188Z,4.57
2018-05-04T02:57:31.776Z,4.77
2018-05-04T03:00:42.133Z,5.87
2018-05-04T03:03:52.099Z,5.97
2018-05-04T03:07:01.538Z,5.63
2018-05-04T03:10:12.398Z,5.97
2018-05-04T03:13:22.756Z,6.23
2018-05-04T03:16:33.809Z,5.00
2018-05-04T03:19:44.593Z,5.70
2018-05-04T03:22:54.741Z,5.93
2018-05-04T03:26:04.166Z,6.13
2018-05-04T03:29:13.613Z,6.00
2018-05-04T03:32:23.399Z,7.00
2018-05-04T03:35:33.839Z,7.57
2018-05-04T03:38:43.944Z,6.43
2018-05-04T03:41:53.811Z,6.87
2018-05-04T03:45:03.288Z,7.47
2018-05-04T03:48:14.234Z,6.50
2018-05-04T03:51:24.090Z,7.93
2018-05-04T03:54:34.222Z,7.67
2018-05-04T03:58:02.110Z,7.23
2018-05-04T04:01:29.271Z,7.57
2018-05-04T04:04:39.044Z,7.83
2018-05-04T04:07:48.456Z,7.60
2018-05-04T04:10:58.369Z,8.13
2018-05-04T04:14:08.433Z,6.80
2018-05-04T04:17:18.531Z,7.27
2018-05-04T04:20:28.260Z,7.93
2018-05-04T04:23:38.119Z,7.43
2018-05-04T04:26:48.389Z,8.20
2018-05-04T04:29:58.286Z,6.90
2018-05-04T04:33:07.693Z,8.00
2018-05-04T04:36:17.134Z,7.70
2018-05-04T04:39:27.509Z,7.40
2018-05-04T04:42:37.681Z,7.73
2018-05-04T04:45:47.821Z,6.80
2018-05-04T04:48:58.135Z,6.97
2018-05-04T04:52:08.024Z,6.00
2018-05-04T04:55:18.478Z,8.03
2018-05-04T04:58:28.780Z,6.47
2018-05-04T05:01:38.623Z,6.67
2018-05-04T05:04:49.004Z,6.17
2018-05-04T05:07:58.691Z,6.40
2018-05-04T05:11:08.393Z,7.43
2018-05-04T05:14:18.595Z,7.47
2018-05-04T05:17:28.852Z,5.67
2018-05-04T05:20:39.108Z,6.13
2018-05-04T05:23:49.076Z,7.13
2018-05-04T05:27:02.325Z,6.87
2018-05-04T05:30:12.480Z,6.13
2018-05-04T05:33:22.653Z,6.63
2018-05-04T05:36:32.490Z,5.83
2018-05-04T05:39:42.431Z,5.63
2018-05-04T05:42:51.969Z,6.23
2018-05-04T05:46:01.725Z,6.00
2018-05-04T05:49:12.048Z,5.57
2018-05-04T05:52:23.231Z,5.37
2018-05-04T05:55:33.125Z,5.93
2018-05-04T05:58:42.624Z,5.30
2018-05-04T06:01:52.668Z,5.33
2018-05-04T06:05:02.436Z,4.03
2018-05-04T06:08:11.916Z,4.80
2018-05-04T06:11:21.788Z,4.80
2018-05-04T06:14:32.124Z,4.63
2018-05-04T06:17:43.237Z,5.40
2018-05-04T06:20:53.384Z,4.97
2018-05-04T06:24:03.877Z,4.77
2018-05-04T06:27:14.056Z,6.27
2018-05-04T06:30:24.283Z,5.00
2018-05-04T06:33:34.796Z,4.77
2018-05-04T06:36:44.702Z,4.60
2018-05-04T06:39:54.137Z,4.73
2018-05-04T06:43:03.995Z,5.20
2018-05-04T06:46:14.106Z,4.37
2018-05-04T06:49:24.303Z,4.80
2018-05-04T06:52:34.515Z,4.60
2018-05-04T06:55:44.723Z,3.97
2018-05-04T06:58:54.596Z,4.50
2018-05-04T07:02:04.036Z,4.00
2018-05-04T07:05:13.947Z,4.40
2018-05-04T07:08:24.135Z,4.73
2018-05-04T07:11:33.796Z,4.23
2018-05-04T07:14:43.708Z,4.53
2018-05-04T07:21:09.452Z,4.23
2018-05-04T07:24:19.344Z,4.27
2018-05-04T07:27:28.841Z,4.10
2018-05-04T07:30:38.292Z,4.17
2018-05-04T07:33:47.717Z,3.97
2018-05-04T07:36:57.935Z,4.30
2018-05-04T07:40:08.257Z,4.20
2018-05-04T07:43:17.693Z,3.67
2018-05-04T07:46:27.563Z,4.70
2018-05-04T07:49:37.382Z,4.60
2018-05-04T07:52:47.621Z,4.10
2018-05-04T07:55:57.325Z,4.90
2018-05-04T07:59:06.696Z,4.40
2018-05-04T08:02:16.062Z,4.13
2018-05-04T08:05:26.221Z,3.87
2018-05-04T08:08:35.693Z,4.50
2018-05-04T08:11:45.926Z,4.10
2018-05-04T08:14:55.341Z,4.23
2018-05-04T08:18:05.217Z,3.70
2018-05-04T08:21:14.865Z,3.90
2018-05-04T08:24:24.919Z,4.30
2018-05-04T08:27:34.999Z,3.67
2018-05-04T08:30:46.456Z,3.93
2018-05-04T08:33:55.781Z,3.67
2018-05-04T08:37:05.104Z,3.50
2018-05-04T08:40:15.181Z,3.13
2018-05-04T08:43:25.041Z,3.10
2018-05-04T08:46:35.260Z,2.93
2018-05-04T08:49:47.165Z,3.03
2018-05-04T08:52:56.559Z,3.50
2018-05-04T08:56:06.076Z,2.50
2018-05-04T08:59:17.321Z,3.43
2018-05-04T09:02:26.836Z,2.47
2018-05-04T09:05:36.221Z,2.90
2018-05-04T09:08:47.926Z,3.67
2018-05-04T09:11:57.297Z,2.63
2018-05-04T09:15:06.779Z,2.30
2018-05-04T09:18:16.340Z,2.93
2018-05-04T09:21:31.240Z,3.40
2018-05-04T09:24:41.242Z,2.70
2018-05-04T09:27:51.321Z,2.30
2018-05-04T09:31:00.983Z,2.40
2018-05-04T09:34:10.351Z,2.10
2018-05-04T09:37:20.050Z,2.65
2018-05-04T09:40:30.251Z,2.87
2018-05-04T09:43:39.613Z,2.80
2018-05-04T09:46:49.745Z,2.05
2018-05-04T09:49:59.228Z,3.03
2018-05-04T09:53:08.712Z,2.95
2018-05-04T09:56:18.211Z,2.55
2018-05-04T09:59:28.434Z,3.08
2018-05-04T10:02:37.776Z,2.55
2018-05-04T10:05:50.548Z,2.80
2018-05-04T10:09:00.849Z,3.05
2018-05-04T10:12:10.183Z,2.67
2018-05-04T10:15:19.643Z,2.53
2018-05-04T10:18:29.243Z,3.55
2018-05-04T10:21:38.560Z,3.12
2018-05-04T10:24:48.045Z,3.15
2018-05-04T10:27:57.870Z,3.30
2018-05-04T10:31:07.332Z,3.12
2018-05-04T10:34:18.549Z,3.30
2018-05-04T10:37:28.061Z,2.95
2018-05-04T10:40:37.893Z,3.25
2018-05-04T10:43:48.014Z,3.62
2018-05-04T10:46:57.772Z,2.72
2018-05-04T10:50:07.233Z,2.55
2018-05-04T10:53:16.482Z,3.25
2018-05-04T10:56:25.936Z,3.30
2018-05-04T10:59:35.333Z,3.20
2018-05-04T11:02:44.792Z,2.50
2018-05-04T11:05:55.576Z,4.03
2018-05-04T11:09:06.772Z,4.25
2018-05-04T11:12:16.409Z,3.92
2018-05-04T11:15:26.660Z,4.20
2018-05-04T11:18:36.876Z,3.80
2018-05-04T11:21:46.476Z,3.72
2018-05-04T11:24:55.979Z,4.40
2018-05-04T11:28:06.272Z,3.60
2018-05-04T11:31:15.779Z,4.00
2018-05-04T11:34:25.777Z,3.67
2018-05-04T11:37:35.361Z,3.67
2018-05-04T11:40:44.821Z,3.97
2018-05-04T11:43:55.079Z,3.95
2018-05-04T11:47:04.907Z,3.83
2018-05-04T11:50:14.800Z,4.35
2018-05-04T11:53:24.252Z,3.53
2018-05-04T11:56:34.732Z,3.28
2018-05-04T11:59:44.084Z,4.12
2018-05-04T12:02:55.832Z,3.75
2018-05-04T12:06:05.488Z,3.42
2018-05-04T12:09:15.260Z,3.72
2018-05-04T12:12:25.172Z,3.75
2018-05-04T12:15:35.433Z,3.72
2018-05-04T12:18:44.817Z,3.12
2018-05-04T12:21:56.759Z,3.10
2018-05-04T12:25:06.232Z,2.92
2018-05-04T12:28:15.682Z,2.80
2018-05-04T12:31:25.158Z,4.07
2018-05-04T12:34:35.529Z,3.72
2018-05-04T12:37:44.824Z,3.12
2018-05-04T12:40:54.741Z,3.42
2018-05-04T12:44:05.735Z,3.30
2018-05-04T12:47:15.179Z,4.90
2018-05-04T12:50:25.016Z,4.37
2018-05-04T12:53:34.520Z,4.43
2018-05-04T12:56:44.681Z,3.47
2018-05-04T12:59:54.180Z,4.20
2018-05-04T13:03:04.603Z,4.10
2018-05-04T13:06:14.060Z,4.07
2018-05-04T13:09:23.566Z,3.70
2018-05-04T13:12:33.750Z,4.30
2018-05-04T13:15:43.971Z,4.10
2018-05-04T13:18:53.433Z,3.47
2018-05-04T13:22:11.472Z,4.75
2018-05-04T13:25:20.975Z,3.87
2018-05-04T13:28:31.409Z,4.50
2018-05-04T13:31:40.893Z,3.40
2018-05-04T13:34:50.608Z,3.37
2018-05-04T13:38:00.556Z,2.47
2018-05-04T13:41:10.815Z,3.80
2018-05-04T13:44:20.439Z,4.20
2018-05-04T13:47:29.927Z,5.22
2018-05-04T13:50:39.769Z,3.10
2018-05-04T13:57:05.038Z,3.90
2018-05-04T14:00:14.396Z,4.40
2018-05-04T14:03:24.095Z,4.40
2018-05-04T14:06:34.807Z,4.00
2018-05-04T14:09:44.175Z,3.85
2018-05-04T14:12:53.652Z,3.85
2018-05-04T14:16:02.889Z,3.83
2018-05-04T14:19:12.896Z,4.70
2018-05-04T14:22:22.532Z,3.90
2018-05-04T14:25:33.553Z,3.50
2018-05-04T14:28:42.816Z,3.00
2018-05-04T14:31:52.315Z,4.55
2018-05-04T14:35:03.076Z,3.90
2018-05-04T14:38:12.404Z,4.60
2018-05-04T14:41:22.326Z,3.80
2018-05-04T14:44:32.033Z,3.83
2018-05-04T14:47:42.423Z,4.50
2018-05-04T14:50:51.882Z,3.22
2018-05-04T14:54:03.757Z,4.95
2018-05-04T14:57:13.143Z,3.55
2018-05-04T15:00:22.780Z,2.92
2018-05-04T15:03:32.292Z,3.17
2018-05-04T15:06:41.879Z,3.97
2018-05-04T15:09:51.309Z,3.42
2018-05-04T15:13:01.581Z,2.53
2018-05-04T15:16:10.838Z,4.60
2018-05-04T15:19:20.450Z,3.30
2018-05-04T15:22:29.899Z,3.90
2018-05-04T15:25:40.182Z,3.25
2018-05-04T15:28:49.651Z,3.40
2018-05-04T15:31:59.065Z,4.65
2018-05-04T15:35:08.544Z,3.40
2018-05-04T15:38:18.824Z,2.87
2018-05-04T15:41:28.829Z,3.60
2018-05-04T15:44:39.208Z,3.65
2018-05-04T15:47:49.336Z,2.90
2018-05-04T15:51:05.387Z,3.40
2018-05-04T15:54:14.704Z,2.75
2018-05-04T15:57:24.222Z,3.45
2018-05-04T16:00:33.646Z,2.87
2018-05-04T16:03:43.989Z,4.12
2018-05-04T16:06:53.391Z,2.80
2018-05-04T16:10:02.926Z,3.45
2018-05-04T16:13:12.442Z,3.53
2018-05-04T16:16:21.830Z,2.80
2018-05-04T16:19:31.360Z,3.35
2018-05-04T16:22:41.540Z,2.60
2018-05-04T16:25:51.475Z,2.95
2018-05-04T16:29:00.981Z,2.55
2018-05-04T16:32:10.362Z,3.30
2018-05-04T16:35:19.739Z,3.22
2018-05-04T16:38:29.137Z,2.72
2018-05-04T16:41:39.099Z,2.72
2018-05-04T16:44:49.307Z,2.67
2018-05-04T16:48:04.304Z,3.12
2018-05-04T16:51:13.691Z,3.30
2018-05-04T16:54:22.992Z,3.60
2018-05-04T16:57:33.360Z,2.97
2018-05-04T17:00:43.083Z,2.40
2018-05-04T17:03:52.517Z,3.17
2018-05-04T17:07:02.150Z,3.00
2018-05-04T17:10:11.552Z,3.70
2018-05-04T17:13:21.631Z,2.60
2018-05-04T17:16:31.908Z,2.75
2018-05-04T17:19:41.331Z,2.87
2018-05-04T17:22:50.623Z,3.60
2018-05-04T17:26:00.062Z,5.37
2018-05-04T17:29:14.796Z,3.28
2018-05-04T17:32:24.191Z,3.33
2018-05-04T17:35:33.666Z,3.12
2018-05-04T17:38:43.080Z,3.50
2018-05-04T17:41:52.555Z,3.03
2018-05-04T17:45:02.602Z,4.93
2018-05-04T17:48:12.865Z,3.60
2018-05-04T17:51:23.081Z,3.92
2018-05-04T17:54:32.975Z,4.22
2018-05-04T17:57:43.230Z,3.90
2018-05-04T18:00:53.364Z,4.65
2018-05-04T18:04:03.507Z,4.70
2018-05-04T18:07:13.792Z,4.30
2018-05-04T18:10:24.036Z,4.15
2018-05-04T18:13:34.334Z,3.90
2018-05-04T18:16:44.616Z,5.30
2018-05-04T18:19:54.950Z,5.32
2018-05-04T18:23:04.709Z,4.40
2018-05-04T18:26:14.575Z,4.07
2018-05-04T18:29:24.906Z,4.93
2018-05-04T18:32:34.244Z,5.40
2018-05-04T18:35:44.620Z,5.00
2018-05-04T18:38:54.119Z,4.82
2018-05-04T18:42:03.804Z,4.70
2018-05-04T18:45:14.272Z,4.95
2018-05-04T18:48:24.030Z,5.20
2018-05-04T18:51:33.340Z,4.30
2018-05-04T18:54:42.826Z,4.57
2018-05-04T18:57:52.751Z,4.68
2018-05-04T19:01:02.949Z,4.47
2018-05-04T19:04:14.418Z,4.60
2018-05-04T19:07:23.888Z,5.25
2018-05-04T19:10:34.121Z,4.72
2018-05-04T19:13:44.877Z,5.28
2018-05-04T19:16:55.067Z,4.97
2018-05-04T19:20:05.161Z,5.10
2018-05-04T19:23:15.838Z,4.97
2018-05-04T19:26:26.135Z,5.00
2018-05-04T19:29:36.584Z,4.78
2018-05-04T19:32:46.405Z,4.43
2018-05-04T19:35:55.617Z,5.03
2018-05-04T19:39:04.960Z,4.63
2018-05-04T19:42:16.576Z,4.82
2018-05-04T19:45:26.469Z,4.87
2018-05-04T19:48:37.090Z,4.93
2018-05-04T19:51:47.380Z,4.87
2018-05-04T19:54:57.164Z,4.80
2018-05-04T19:58:06.991Z,4.33
2018-05-04T20:01:17.550Z,4.30
2018-05-04T20:04:27.715Z,4.53
2018-05-04T20:07:37.534Z,4.77
2018-05-04T20:10:47.831Z,4.67
2018-05-04T20:13:59.461Z,4.93
2018-05-04T20:17:10.848Z,4.30
2018-05-04T20:20:24.973Z,4.50
2018-05-04T20:23:34.989Z,5.13
2018-05-04T20:26:45.730Z,4.50
2018-05-04T20:29:55.739Z,5.10
2018-05-04T20:33:06.294Z,4.70
2018-05-04T20:36:18.867Z,5.57
2018-05-04T20:39:28.347Z,5.00
2018-05-04T20:42:37.941Z,4.73
2018-05-04T20:45:47.396Z,4.53
2018-05-04T20:48:57.342Z,4.60
2018-05-04T20:52:06.743Z,4.40
2018-05-04T20:55:18.858Z,4.90
2018-05-04T20:58:29.275Z,5.00
2018-05-04T21:01:39.529Z,4.70
2018-05-04T21:04:48.999Z,4.63
2018-05-04T21:07:58.479Z,4.60
2018-05-04T21:11:08.465Z,4.80
2018-05-04T21:14:19.575Z,5.73
2018-05-04T21:17:29.421Z,5.50
2018-05-04T21:20:39.874Z,4.53
2018-05-04T21:23:49.782Z,5.03
2018-05-04T21:26:59.581Z,5.33
2018-05-04T21:30:09.419Z,5.23
2018-05-04T21:33:19.813Z,5.00
2018-05-04T21:36:29.950Z,4.53
2018-05-04T21:39:41.625Z,4.87
2018-05-04T21:42:51.663Z,4.23
2018-05-04T21:46:01.117Z,4.50
2018-05-04T21:49:10.931Z,5.13
2018-05-04T21:52:21.300Z,4.97
2018-05-04T21:55:30.660Z,4.13
2018-05-04T21:58:40.551Z,4.90
2018-05-04T22:01:49.994Z,4.80
2018-05-04T22:05:00.184Z,4.37
2018-05-04T22:08:09.668Z,5.10
2018-05-04T22:11:21.549Z,4.73
2018-05-04T22:14:31.875Z,4.50
2018-05-04T22:17:42.121Z,4.77
2018-05-04T22:20:52.183Z,4.80
2018-05-04T22:24:02.365Z,4.80
2018-05-04T22:27:12.979Z,4.83
2018-05-04T22:30:23.161Z,5.10
2018-05-04T22:33:32.935Z,4.23
2018-05-04T22:36:43.020Z,4.50
2018-05-04T22:39:53.324Z,4.67
2018-05-04T22:43:03.747Z,4.43
2018-05-04T22:46:13.644Z,3.93
2018-05-04T22:49:24.910Z,4.23
2018-05-04T22:52:34.141Z,4.57
2018-05-04T22:55:44.508Z,4.77
2018-05-04T22:58:54.016Z,4.33
2018-05-04T23:02:03.598Z,4.20
2018-05-04T23:05:13.729Z,3.80
2018-05-04T23:08:24.593Z,4.37
2018-05-04T23:11:33.968Z,4.03
2018-05-04T23:14:43.455Z,3.73
2018-05-04T23:17:53.773Z,3.57
2018-05-04T23:21:07.852Z,4.20
2018-05-04T23:24:17.175Z,4.77
2018-05-04T23:27:26.983Z,4.00
2018-05-04T23:30:36.601Z,4.00
2018-05-04T23:33:50.263Z,4.50
2018-05-04T23:36:59.785Z,4.03
2018-05-04T23:40:09.237Z,4.60
2018-05-04T23:43:19.213Z,4.23
2018-05-04T23:46:28.523Z,4.13
2018-05-04T23:49:38.033Z,4.40
2018-05-04T23:52:51.643Z,4.37
2018-05-04T23:56:01.823Z,3.53
2018-05-04T23:59:11.221Z,3.67
